Time;durP1;ratioP1;P1;durP2;ratioP2;P2;SDS_P1;SDS_P2;PMS_P1;PMS_P2;Temp;Humidity;BMP_temperature;BMP_pressure;BME280_temperature;BME280_humidity;BME280_pressure;Samples;Min_cycle;Max_cycle;Signal;HPM_P1;HPM_P2
2024/01/08 00:02:23;;;;;;;7.20;4.18;;;-2.00;99.90;;;;;;4965526;28;20039;-77
2024/01/08 00:04:49;;;;;;;6.18;3.95;;;-2.00;99.90;;;;;;4965883;28;20042;-77
2024/01/08 00:07:14;;;;;;;6.13;4.43;;;-2.00;99.90;;;;;;4931434;28;20095;-77
2024/01/08 00:09:40;;;;;;;8.63;4.97;;;-2.10;99.90;;;;;;4932707;28;20050;-78
2024/01/08 00:12:06;;;;;;;9.80;4.72;;;-2.00;99.90;;;;;;4945265;28;20074;-77
2024/01/08 00:14:31;;;;;;;8.00;5.68;;;-2.00;99.90;;;;;;4934181;28;20070;-77
2024/01/08 00:16:57;;;;;;;10.98;5.25;;;-2.10;99.90;;;;;;4947704;28;20485;-78
2024/01/08 00:19:23;;;;;;;13.10;7.63;;;-2.10;99.90;;;;;;4913015;28;20546;-77
2024/01/08 00:21:48;;;;;;;9.05;5.97;;;-2.10;99.90;;;;;;4965087;28;20712;-77
2024/01/08 00:24:15;;;;;;;9.00;7.03;;;-2.10;99.90;;;;;;4948594;28;20050;-77
2024/01/08 00:26:40;;;;;;;8.57;4.85;;;-2.20;99.90;;;;;;4936200;28;20054;-77
2024/01/08 00:29:06;;;;;;;7.97;5.88;;;-2.20;99.90;;;;;;4949454;28;20035;-77
2024/01/08 00:31:31;;;;;;;12.45;7.07;;;-2.00;99.90;;;;;;4961037;28;20058;-77
2024/01/08 00:33:57;;;;;;;8.20;5.43;;;-2.10;99.90;;;;;;4931005;28;20031;-78
2024/01/08 00:36:23;;;;;;;8.07;5.93;;;-2.10;99.90;;;;;;4950185;28;20031;-77
2024/01/08 00:38:49;;;;;;;9.82;6.53;;;-2.10;99.90;;;;;;4945416;28;20497;-78
2024/01/08 00:41:15;;;;;;;8.95;6.70;;;-2.10;99.90;;;;;;4928316;28;20039;-77
2024/01/08 00:43:40;;;;;;;9.60;6.00;;;-2.10;99.90;;;;;;4931296;28;20023;-77
2024/01/08 00:46:06;;;;;;;11.15;5.68;;;-2.10;99.90;;;;;;4947774;28;20042;-77
2024/01/08 00:48:32;;;;;;;10.75;5.85;;;-2.10;99.90;;;;;;4932868;28;20023;-78
2024/01/08 00:50:57;;;;;;;10.35;5.60;;;-2.10;99.90;;;;;;4963566;28;20145;-77
2024/01/08 00:53:23;;;;;;;10.70;7.18;;;-2.10;99.90;;;;;;4935137;28;20035;-77
2024/01/08 00:55:48;;;;;;;9.90;6.57;;;-2.10;99.90;;;;;;4946298;28;20097;-78
2024/01/08 00:58:15;;;;;;;8.57;5.78;;;-2.10;99.90;;;;;;4947865;28;20050;-78
2024/01/08 01:00:41;;;;;;;10.80;6.22;;;-2.10;99.90;;;;;;4918295;28;20058;-78
2024/01/08 01:03:06;;;;;;;8.05;5.80;;;-2.10;99.90;;;;;;4946449;28;20104;-76
2024/01/08 01:05:32;;;;;;;8.30;6.22;;;-2.10;99.90;;;;;;4942303;28;20046;-76
2024/01/08 01:07:57;;;;;;;12.55;5.55;;;-2.10;99.90;;;;;;4946650;28;20038;-75
2024/01/08 01:10:23;;;;;;;9.48;5.40;;;-2.10;99.90;;;;;;4961352;28;20053;-76
2024/01/08 01:12:49;;;;;;;11.10;5.70;;;-2.20;99.90;;;;;;4944348;28;20389;-76
2024/01/08 01:15:14;;;;;;;8.15;6.35;;;-2.20;99.90;;;;;;4912868;28;20042;-75
2024/01/08 01:17:40;;;;;;;9.38;7.10;;;-2.30;99.90;;;;;;4917768;28;20516;-76
2024/01/08 01:20:06;;;;;;;8.45;5.47;;;-2.30;99.90;;;;;;4946192;28;20042;-76
2024/01/08 01:22:32;;;;;;;10.20;5.82;;;-2.40;99.90;;;;;;4961582;28;20493;-76
2024/01/08 01:24:58;;;;;;;10.48;6.22;;;-2.40;99.90;;;;;;4960070;28;20146;-75
2024/01/08 01:27:23;;;;;;;8.27;5.97;;;-2.40;99.90;;;;;;4931581;28;20485;-76
2024/01/08 01:29:49;;;;;;;9.30;6.32;;;-2.60;99.90;;;;;;4912464;28;20043;-75
2024/01/08 01:32:14;;;;;;;7.75;5.80;;;-2.60;99.90;;;;;;4947069;28;20053;-76
2024/01/08 01:34:40;;;;;;;11.25;5.57;;;-2.60;99.90;;;;;;4930582;28;20035;-75
2024/01/08 01:37:05;;;;;;;9.38;6.68;;;-2.60;99.90;;;;;;4927301;28;20614;-76
2024/01/08 01:39:32;;;;;;;8.55;5.93;;;-2.80;99.90;;;;;;4962923;28;20034;-76
2024/01/08 01:41:58;;;;;;;9.82;6.43;;;-2.70;99.90;;;;;;4962199;28;20766;-76
2024/01/08 01:44:23;;;;;;;7.50;6.32;;;-2.90;99.90;;;;;;4913723;28;20033;-76
2024/01/08 01:46:49;;;;;;;6.95;4.78;;;-2.80;99.90;;;;;;4943940;28;20142;-76
2024/01/08 01:49:19;;;;;;;7.85;5.28;;;-2.90;99.90;;;;;;4949141;28;20035;-76
2024/01/08 01:51:46;;;;;;;11.50;6.57;;;-3.00;99.90;;;;;;4942575;28;20062;-76
2024/01/08 01:54:13;;;;;;;16.65;6.00;;;-3.10;99.90;;;;;;4941285;28;20128;-75
2024/01/08 01:56:40;;;;;;;8.25;6.85;;;-3.10;99.90;;;;;;4930553;28;20038;-76
2024/01/08 01:59:05;;;;;;;9.63;6.45;;;-3.20;99.90;;;;;;4926183;28;20062;-76
2024/01/08 02:01:31;;;;;;;10.65;5.45;;;-3.20;99.90;;;;;;4959809;28;20616;-76
2024/01/08 02:03:57;;;;;;;8.70;5.82;;;-3.20;99.90;;;;;;4961463;28;20027;-76
2024/01/08 02:06:23;;;;;;;13.43;7.50;;;-3.20;99.90;;;;;;4947256;28;20084;-75
2024/01/08 02:08:50;;;;;;;12.20;6.25;;;-3.30;99.90;;;;;;4917866;28;20162;-76
2024/01/08 02:11:15;;;;;;;9.32;4.82;;;-3.30;99.90;;;;;;4946033;28;20545;-76
2024/01/08 02:13:41;;;;;;;9.95;7.47;;;-3.20;99.90;;;;;;4931591;28;20139;-75
2024/01/08 02:16:06;;;;;;;7.78;5.72;;;-3.20;99.90;;;;;;4932209;28;20042;-76
2024/01/08 02:18:32;;;;;;;9.30;5.95;;;-3.10;99.90;;;;;;4960876;28;20046;-76
2024/01/08 02:20:57;;;;;;;10.68;5.93;;;-3.10;99.90;;;;;;4925523;28;20031;-76
2024/01/08 02:23:23;;;;;;;8.25;5.53;;;-3.10;99.90;;;;;;4944710;28;20035;-75
2024/01/08 02:25:49;;;;;;;11.10;6.95;;;-3.00;99.90;;;;;;4945757;28;20085;-76
2024/01/08 02:28:14;;;;;;;9.80;6.72;;;-2.90;99.90;;;;;;4944130;28;20038;-75
2024/01/08 02:30:40;;;;;;;9.38;6.15;;;-2.90;99.90;;;;;;4910615;28;20186;-76
2024/01/08 02:33:05;;;;;;;10.40;6.25;;;-2.90;99.90;;;;;;4957395;28;20174;-75
2024/01/08 02:35:31;;;;;;;12.63;6.45;;;-2.80;99.90;;;;;;4945342;28;20113;-76
2024/01/08 02:37:56;;;;;;;10.57;7.07;;;-2.80;99.90;;;;;;4944246;28;20066;-75
2024/01/08 02:40:22;;;;;;;10.52;7.05;;;-2.80;99.90;;;;;;4914288;28;20027;-76
2024/01/08 02:42:47;;;;;;;10.70;6.35;;;-2.70;99.90;;;;;;4933341;28;20045;-75
2024/01/08 02:45:13;;;;;;;9.15;6.00;;;-2.70;99.90;;;;;;4931439;28;20088;-76
2024/01/08 02:47:40;;;;;;;8.73;6.07;;;-2.70;99.90;;;;;;4928424;28;20488;-75
2024/01/08 02:50:06;;;;;;;9.85;6.53;;;-2.70;99.90;;;;;;4961773;28;20038;-75
2024/01/08 02:52:32;;;;;;;11.95;6.57;;;-2.70;99.90;;;;;;4926042;28;20165;-76
2024/01/08 02:54:57;;;;;;;11.35;7.47;;;-2.70;99.90;;;;;;4959725;28;20126;-76
2024/01/08 02:57:25;;;;;;;10.20;6.60;;;-2.70;99.90;;;;;;4928647;28;20038;-76
2024/01/08 02:59:50;;;;;;;13.07;7.20;;;-2.70;99.90;;;;;;4931271;28;20508;-76
2024/01/08 03:02:16;;;;;;;9.65;6.57;;;-2.70;99.90;;;;;;4961663;28;20047;-75
2024/01/08 03:04:41;;;;;;;10.77;7.57;;;-2.70;99.90;;;;;;4930074;28;20035;-76
2024/01/08 03:07:07;;;;;;;9.60;6.43;;;-2.70;99.90;;;;;;4944992;28;20039;-75
2024/01/08 03:09:32;;;;;;;12.20;7.13;;;-2.70;99.90;;;;;;4930069;28;20035;-75
2024/01/08 03:11:58;;;;;;;11.93;7.35;;;-2.70;99.90;;;;;;4961768;28;20098;-76
2024/01/08 03:14:23;;;;;;;12.32;7.38;;;-2.60;99.90;;;;;;4963236;28;20035;-76
2024/01/08 03:16:49;;;;;;;10.55;7.85;;;-2.60;99.90;;;;;;4931965;28;20081;-75
2024/01/08 03:19:14;;;;;;;9.40;5.97;;;-2.60;99.90;;;;;;4966770;28;20106;-75
2024/01/08 03:21:40;;;;;;;13.68;8.18;;;-2.70;99.90;;;;;;4965896;28;20501;-76
2024/01/08 03:24:05;;;;;;;15.88;8.18;;;-2.60;99.90;;;;;;4933935;28;20085;-76
2024/01/08 03:26:31;;;;;;;9.30;6.90;;;-2.60;99.90;;;;;;4964387;28;20093;-75
2024/01/08 03:28:57;;;;;;;10.30;7.35;;;-2.60;99.90;;;;;;4946635;28;20030;-77
2024/01/08 03:31:23;;;;;;;10.52;6.00;;;-2.60;99.90;;;;;;4947311;28;20035;-79
2024/01/08 03:33:49;;;;;;;11.80;6.85;;;-2.60;99.90;;;;;;4949179;28;20039;-77
2024/01/08 03:36:14;;;;;;;11.95;6.80;;;-2.60;99.90;;;;;;4965909;28;20031;-78
2024/01/08 03:38:40;;;;;;;11.05;6.85;;;-2.50;99.90;;;;;;4965992;28;20035;-76
2024/01/08 03:41:06;;;;;;;15.25;7.32;;;-2.50;99.90;;;;;;4949774;28;20045;-78
2024/01/08 03:43:31;;;;;;;10.65;7.72;;;-2.50;99.90;;;;;;4932517;28;20508;-77
2024/01/08 03:45:57;;;;;;;10.38;5.72;;;-2.50;99.90;;;;;;4947229;28;20035;-78
2024/01/08 03:48:23;;;;;;;12.35;8.75;;;-2.50;99.90;;;;;;4966771;28;20027;-78
2024/01/08 03:50:48;;;;;;;9.60;6.85;;;-2.50;99.90;;;;;;4915772;28;20381;-78
2024/01/08 03:53:14;;;;;;;10.77;7.85;;;-2.50;99.90;;;;;;4944438;28;20574;-79
2024/01/08 03:55:39;;;;;;;12.80;8.00;;;-2.50;99.90;;;;;;4962826;28;20062;-78
2024/01/08 03:58:05;;;;;;;10.20;6.70;;;-2.50;99.90;;;;;;4933244;28;20035;-78
2024/01/08 04:00:30;;;;;;;14.75;6.82;;;-2.50;99.90;;;;;;4933731;28;20461;-78
2024/01/08 04:02:56;;;;;;;14.52;8.07;;;-2.50;99.90;;;;;;4916334;28;20062;-77
2024/01/08 04:05:21;;;;;;;11.75;6.90;;;-2.50;99.90;;;;;;4961633;28;20038;-79
2024/01/08 04:07:47;;;;;;;12.27;7.47;;;-2.50;99.90;;;;;;4911755;28;20102;-79
2024/01/08 04:10:12;;;;;;;14.07;7.93;;;-2.50;99.90;;;;;;4917605;28;20027;-78
2024/01/08 04:12:38;;;;;;;14.35;7.82;;;-2.50;99.90;;;;;;4944599;28;20174;-78
2024/01/08 04:15:04;;;;;;;12.00;7.72;;;-2.40;99.90;;;;;;4949209;28;20042;-78
2024/01/08 04:17:29;;;;;;;13.15;9.27;;;-2.50;99.90;;;;;;4915295;28;20039;-78
2024/01/08 04:19:55;;;;;;;16.92;9.60;;;-2.50;99.90;;;;;;4933714;28;20500;-78
2024/01/08 04:22:21;;;;;;;14.27;9.98;;;-2.50;99.90;;;;;;4947477;28;20113;-78
2024/01/08 04:24:46;;;;;;;11.30;7.07;;;-2.50;99.90;;;;;;4945894;28;20113;-78
2024/01/08 04:27:12;;;;;;;14.82;10.23;;;-2.50;99.90;;;;;;4945944;28;20062;-78
2024/01/08 04:29:37;;;;;;;10.80;7.60;;;-2.50;99.90;;;;;;4964941;28;20058;-78
2024/01/08 04:32:03;;;;;;;11.00;7.88;;;-2.50;99.90;;;;;;4947368;28;20038;-78
2024/01/08 04:34:29;;;;;;;21.05;8.70;;;-2.50;99.90;;;;;;4928884;28;20061;-79
2024/01/08 04:36:54;;;;;;;14.90;9.52;;;-2.50;99.90;;;;;;4933376;28;20023;-78
2024/01/08 04:39:20;;;;;;;12.90;9.60;;;-2.50;99.90;;;;;;4947844;28;20483;-78
2024/01/08 04:41:45;;;;;;;13.55;8.90;;;-2.50;99.90;;;;;;4948970;28;20201;-79
2024/01/08 04:44:11;;;;;;;12.07;8.13;;;-2.40;99.90;;;;;;4915290;28;20062;-80
2024/01/08 04:46:36;;;;;;;13.48;8.27;;;-2.40;99.90;;;;;;4946926;28;20077;-78
2024/01/08 04:49:09;;;;;;;13.27;7.97;;;-2.40;99.90;;;;;;4959783;28;20178;-78
2024/01/08 04:51:34;;;;;;;11.38;7.45;;;-2.40;99.90;;;;;;4947715;28;20066;-78
2024/01/08 04:54:00;;;;;;;12.60;9.45;;;-2.40;99.90;;;;;;4931423;28;20449;-78
2024/01/08 04:56:27;;;;;;;13.02;8.50;;;-2.40;99.90;;;;;;4933420;28;20027;-79
2024/01/08 04:58:53;;;;;;;13.98;8.43;;;-2.40;99.90;;;;;;4932816;28;20058;-79
2024/01/08 05:01:19;;;;;;;16.30;9.65;;;-2.40;99.90;;;;;;4946484;28;20058;-79
2024/01/08 05:03:44;;;;;;;12.75;9.45;;;-2.40;99.90;;;;;;4934009;28;20713;-79
2024/01/08 05:06:13;;;;;;;15.77;9.40;;;-2.50;99.90;;;;;;4932000;28;20031;-79
2024/01/08 05:08:38;;;;;;;13.75;8.70;;;-2.40;99.90;;;;;;4931178;28;20062;-79
2024/01/08 05:11:07;;;;;;;12.95;8.25;;;-2.40;99.90;;;;;;4946515;28;20067;-78
2024/01/08 05:13:35;;;;;;;14.48;9.02;;;-2.40;99.90;;;;;;4946762;28;20632;-78
2024/01/08 05:16:01;;;;;;;12.68;8.65;;;-2.40;99.90;;;;;;4958030;28;20130;-79
2024/01/08 05:18:27;;;;;;;14.15;9.07;;;-2.40;99.90;;;;;;4962151;28;20075;-79
2024/01/08 05:20:53;;;;;;;14.82;9.43;;;-2.40;99.90;;;;;;4950251;28;20031;-79
2024/01/08 05:23:19;;;;;;;17.65;9.10;;;-2.30;99.90;;;;;;4946505;28;20444;-78
2024/01/08 05:25:44;;;;;;;12.90;8.48;;;-2.40;99.90;;;;;;4926878;28;20094;-79
2024/01/08 05:28:10;;;;;;;11.88;8.88;;;-2.40;99.90;;;;;;4942620;28;20039;-79
2024/01/08 05:30:36;;;;;;;14.10;9.63;;;-2.30;99.90;;;;;;4930822;28;20042;-79
2024/01/08 05:33:02;;;;;;;13.30;9.07;;;-2.30;99.90;;;;;;4945794;28;20117;-79
2024/01/08 05:35:28;;;;;;;15.07;8.95;;;-2.30;99.90;;;;;;4947177;28;20374;-78
2024/01/08 05:37:53;;;;;;;13.55;8.02;;;-2.30;99.90;;;;;;4960896;28;20141;-78
2024/01/08 05:40:19;;;;;;;19.23;9.05;;;-2.30;99.90;;;;;;4943382;28;20023;-79
2024/01/08 05:42:45;;;;;;;16.45;10.45;;;-2.30;99.90;;;;;;4946854;28;20090;-78
2024/01/08 05:45:10;;;;;;;16.20;9.25;;;-2.30;99.90;;;;;;4933167;28;20042;-78
2024/01/08 05:47:36;;;;;;;17.40;9.00;;;-2.30;99.90;;;;;;4944264;28;20031;-78
2024/01/08 05:50:05;;;;;;;16.13;9.10;;;-2.30;99.90;;;;;;4945609;28;20496;-79
2024/01/08 05:52:31;;;;;;;14.27;9.95;;;-2.30;99.90;;;;;;4943587;28;20046;-78
2024/01/08 05:54:57;;;;;;;15.25;9.88;;;-2.30;99.90;;;;;;4946358;28;20043;-76
2024/01/08 05:57:22;;;;;;;15.90;10.00;;;-2.30;99.90;;;;;;4930980;28;20039;-77
2024/01/08 05:59:48;;;;;;;20.63;9.65;;;-2.30;99.90;;;;;;4915838;28;20057;-77
2024/01/08 06:02:14;;;;;;;11.63;8.43;;;-2.30;99.90;;;;;;4940923;28;20038;-77
2024/01/08 06:04:39;;;;;;;15.40;10.18;;;-2.20;99.90;;;;;;4930250;28;20031;-77
2024/01/08 06:07:05;;;;;;;15.60;8.90;;;-2.20;99.90;;;;;;4930359;28;20486;-77
2024/01/08 06:09:30;;;;;;;12.88;9.35;;;-2.20;99.90;;;;;;4957713;28;20520;-76
2024/01/08 06:11:56;;;;;;;25.88;11.35;;;-2.30;99.90;;;;;;4962600;28;20496;-77
2024/01/08 06:14:22;;;;;;;13.05;8.02;;;-2.30;99.90;;;;;;4944395;28;20497;-77
2024/01/08 06:16:47;;;;;;;13.65;9.55;;;-2.30;99.90;;;;;;4929294;28;20031;-76
2024/01/08 06:19:13;;;;;;;16.05;8.93;;;-2.20;99.90;;;;;;4930893;28;20050;-76
2024/01/08 06:21:38;;;;;;;17.30;11.80;;;-2.20;99.90;;;;;;4909105;28;20053;-76
2024/01/08 06:24:04;;;;;;;17.35;10.68;;;-2.20;99.90;;;;;;4927849;28;20035;-77
2024/01/08 06:26:31;;;;;;;17.73;10.98;;;-2.20;99.90;;;;;;4955981;28;20390;-76
2024/01/08 06:28:56;;;;;;;16.38;10.25;;;-2.20;99.90;;;;;;4959168;28;20030;-77
2024/01/08 06:31:22;;;;;;;17.25;10.63;;;-2.20;99.90;;;;;;4959502;28;20496;-76
2024/01/08 06:33:47;;;;;;;15.30;9.38;;;-2.20;99.90;;;;;;4958761;28;20121;-76
2024/01/08 06:36:13;;;;;;;16.85;9.45;;;-2.20;99.90;;;;;;4960591;28;20039;-77
2024/01/08 06:38:38;;;;;;;24.95;12.25;;;-2.20;99.90;;;;;;4960522;28;20034;-77
2024/01/08 06:41:05;;;;;;;16.33;9.32;;;-2.20;99.90;;;;;;4943762;28;20032;-77
2024/01/08 06:43:31;;;;;;;16.00;10.77;;;-2.20;99.90;;;;;;4943652;28;20034;-77
2024/01/08 06:45:56;;;;;;;12.15;9.13;;;-2.20;99.90;;;;;;4925406;28;20426;-76
2024/01/08 06:48:22;;;;;;;14.80;8.00;;;-2.20;99.90;;;;;;4941920;28;20096;-77
2024/01/08 06:50:47;;;;;;;12.13;8.40;;;-2.20;99.90;;;;;;4941796;28;20039;-77
2024/01/08 06:53:13;;;;;;;12.10;7.70;;;-2.20;99.90;;;;;;4927600;28;20069;-77
2024/01/08 06:55:38;;;;;;;14.88;8.95;;;-2.10;99.90;;;;;;4945474;28;20484;-76
2024/01/08 06:58:04;;;;;;;14.85;9.25;;;-2.10;99.90;;;;;;4960250;28;20038;-77
2024/01/08 07:00:30;;;;;;;11.98;7.72;;;-2.20;99.90;;;;;;4945051;28;20034;-78
2024/01/08 07:02:55;;;;;;;11.18;7.80;;;-2.20;99.90;;;;;;4943427;28;20074;-77
2024/01/08 07:05:21;;;;;;;13.80;8.15;;;-2.10;99.90;;;;;;4928648;28;20117;-78
2024/01/08 07:07:46;;;;;;;13.55;8.52;;;-2.10;99.90;;;;;;4927816;28;20453;-77
2024/01/08 07:10:12;;;;;;;10.32;7.13;;;-2.10;99.90;;;;;;4943892;28;20054;-77
2024/01/08 07:12:37;;;;;;;11.75;7.38;;;-2.20;99.90;;;;;;4944221;28;20108;-77
2024/01/08 07:15:04;;;;;;;13.93;7.60;;;-2.20;99.90;;;;;;4946061;28;20054;-77
2024/01/08 07:17:29;;;;;;;12.30;7.38;;;-2.10;99.90;;;;;;4929528;28;20042;-77
2024/01/08 07:19:55;;;;;;;12.15;7.20;;;-2.10;99.90;;;;;;4942890;28;20043;-77
2024/01/08 07:22:20;;;;;;;16.05;8.85;;;-2.10;99.90;;;;;;4927262;28;20035;-77
2024/01/08 07:24:47;;;;;;;11.43;7.28;;;-2.00;99.90;;;;;;4941945;28;20047;-77
2024/01/08 07:27:13;;;;;;;11.40;6.82;;;-2.00;99.90;;;;;;4948850;28;20515;-76
2024/01/08 07:29:39;;;;;;;12.68;7.13;;;-2.00;99.90;;;;;;4941741;28;20039;-77
2024/01/08 07:32:05;;;;;;;10.07;6.22;;;-2.00;99.90;;;;;;4946859;28;20116;-77
2024/01/08 07:34:30;;;;;;;14.45;8.98;;;-2.00;99.90;;;;;;4960550;28;20042;-78
2024/01/08 07:36:56;;;;;;;12.35;8.10;;;-2.10;99.90;;;;;;4940659;28;20034;-77
2024/01/08 07:39:21;;;;;;;15.65;10.13;;;-2.10;99.90;;;;;;4928905;28;20030;-77
2024/01/08 07:41:49;;;;;;;12.43;8.45;;;-2.20;99.90;;;;;;4931957;28;20046;-77
2024/01/08 07:44:15;;;;;;;17.60;8.65;;;-2.20;99.90;;;;;;4945808;28;20027;-77
2024/01/08 07:46:42;;;;;;;11.60;6.47;;;-2.20;99.90;;;;;;4942451;28;20031;-77
2024/01/08 07:49:09;;;;;;;15.57;8.68;;;-2.10;99.90;;;;;;4940602;28;20114;-77
2024/01/08 07:51:34;;;;;;;13.50;9.05;;;-2.20;99.90;;;;;;4941301;28;20031;-78
2024/01/08 07:54:00;;;;;;;11.77;8.23;;;-2.10;99.90;;;;;;4933620;28;20574;-77
2024/01/08 07:56:25;;;;;;;12.80;9.25;;;-2.10;99.90;;;;;;4926229;28;20046;-77
2024/01/08 07:58:53;;;;;;;12.30;9.35;;;-2.10;99.90;;;;;;4940810;28;20061;-78
2024/01/08 08:01:19;;;;;;;12.85;7.70;;;-2.10;99.90;;;;;;4943621;28;20026;-77
2024/01/08 08:03:45;;;;;;;17.40;8.23;;;-2.10;99.90;;;;;;4929135;28;20495;-77
2024/01/08 08:06:11;;;;;;;12.90;7.88;;;-2.00;99.90;;;;;;4948939;28;20038;-77
2024/01/08 08:08:36;;;;;;;16.40;8.90;;;-2.00;99.90;;;;;;4946788;28;20052;-77
2024/01/08 08:11:03;;;;;;;14.05;8.60;;;-2.00;99.90;;;;;;4928030;28;20037;-77
2024/01/08 08:13:29;;;;;;;13.02;8.43;;;-2.00;99.90;;;;;;4949101;28;20492;-77
2024/01/08 08:15:54;;;;;;;13.90;9.55;;;-2.10;99.90;;;;;;4935645;28;20062;-78
2024/01/08 08:18:20;;;;;;;12.38;7.60;;;-2.10;99.90;;;;;;4947366;28;20039;-77
2024/01/08 08:20:52;;;;;;;11.75;7.53;;;-2.10;99.90;;;;;;4944573;28;20033;-77
2024/01/08 08:23:18;;;;;;;13.48;8.63;;;-2.10;99.90;;;;;;4961882;28;20042;-77
2024/01/08 08:25:44;;;;;;;14.15;8.23;;;-2.10;99.90;;;;;;4962492;28;20050;-78
2024/01/08 08:28:09;;;;;;;14.95;8.75;;;-2.10;99.90;;;;;;4963958;28;20497;-77
2024/01/08 08:30:35;;;;;;;13.68;8.27;;;-2.00;99.90;;;;;;4947117;28;20026;-77
2024/01/08 08:33:01;;;;;;;13.27;7.18;;;-2.00;99.90;;;;;;4964011;28;20089;-77
2024/01/08 08:35:28;;;;;;;13.15;9.60;;;-1.90;99.90;;;;;;4947486;28;20031;-77
2024/01/08 08:37:56;;;;;;;13.68;9.07;;;-2.00;99.90;;;;;;4932134;28;20440;-77
2024/01/08 08:40:22;;;;;;;14.05;9.38;;;-2.00;99.90;;;;;;4943281;28;20072;-77
2024/01/08 08:42:47;;;;;;;13.18;9.57;;;-2.00;99.90;;;;;;4947570;28;20497;-76
2024/01/08 08:45:19;;;;;;;15.52;8.68;;;-2.00;99.90;;;;;;4960585;28;20098;-77
2024/01/08 08:47:44;;;;;;;15.10;8.68;;;-2.00;99.90;;;;;;4961213;28;20074;-77
2024/01/08 08:50:12;;;;;;;18.77;10.57;;;-1.90;99.90;;;;;;4963360;28;20058;-77
2024/01/08 08:52:37;;;;;;;13.55;8.60;;;-2.00;99.90;;;;;;4930539;28;20037;-77
2024/01/08 08:55:04;;;;;;;15.43;8.23;;;-2.00;99.90;;;;;;4931565;28;20030;-77
2024/01/08 08:57:30;;;;;;;12.25;7.88;;;-1.90;99.90;;;;;;4963156;28;20780;-77
2024/01/08 08:59:55;;;;;;;15.77;8.25;;;-1.90;99.90;;;;;;4932338;28;20044;-76
2024/01/08 09:02:23;;;;;;;13.07;8.30;;;-1.90;99.90;;;;;;4960957;28;20023;-77
2024/01/08 09:04:49;;;;;;;13.63;8.38;;;-1.80;99.90;;;;;;4964538;28;20049;-77
2024/01/08 09:07:16;;;;;;;13.85;7.70;;;-1.80;99.90;;;;;;4928827;28;20031;-75
2024/01/08 09:09:42;;;;;;;12.50;7.53;;;-1.90;99.90;;;;;;4931919;28;20150;-77
2024/01/08 09:12:08;;;;;;;11.43;6.88;;;-1.90;99.90;;;;;;4945719;28;20534;-77
2024/01/08 09:14:34;;;;;;;11.85;6.07;;;-1.80;99.90;;;;;;4946846;28;20030;-77
2024/01/08 09:16:59;;;;;;;7.20;5.68;;;-1.80;99.90;;;;;;4934582;28;20149;-76
2024/01/08 09:19:25;;;;;;;7.82;5.78;;;-1.80;99.90;;;;;;4961155;28;20031;-76
2024/01/08 09:21:50;;;;;;;8.90;5.57;;;-1.80;99.90;;;;;;4947273;28;20402;-77
2024/01/08 09:24:16;;;;;;;8.30;4.38;;;-1.80;99.90;;;;;;4947372;28;20037;-77
2024/01/08 09:26:42;;;;;;;5.85;4.53;;;-1.80;99.90;;;;;;4933966;28;20034;-76
2024/01/08 09:29:08;;;;;;;7.88;4.05;;;-1.80;99.90;;;;;;4933107;28;20038;-77
2024/01/08 09:31:35;;;;;;;6.25;4.18;;;-1.90;99.90;;;;;;4912010;28;20031;-77
2024/01/08 09:34:00;;;;;;;6.75;3.55;;;-2.00;99.90;;;;;;4965131;28;20049;-77
2024/01/08 09:36:26;;;;;;;7.03;3.28;;;-2.10;99.90;;;;;;4945439;28;20038;-77
2024/01/08 09:38:51;;;;;;;4.43;3.28;;;-2.10;99.90;;;;;;4948748;28;20027;-77
2024/01/08 09:41:17;;;;;;;5.53;3.20;;;-2.10;99.90;;;;;;4944286;28;20114;-77
2024/01/08 09:43:45;;;;;;;7.15;2.88;;;-2.20;99.90;;;;;;4933556;28;20063;-78
2024/01/08 09:46:11;;;;;;;6.03;3.72;;;-2.30;99.90;;;;;;4914636;28;20035;-77
2024/01/08 09:48:37;;;;;;;6.38;3.50;;;-2.30;99.90;;;;;;4946116;28;20062;-78
2024/01/08 09:51:03;;;;;;;4.82;3.47;;;-2.40;99.90;;;;;;4914279;28;20026;-77
2024/01/08 09:53:29;;;;;;;5.72;3.78;;;-2.40;99.90;;;;;;4945041;28;20034;-77
2024/01/08 09:55:55;;;;;;;5.65;3.92;;;-2.40;99.90;;;;;;4930247;28;20039;-78
2024/01/08 09:58:20;;;;;;;4.00;2.85;;;-2.50;99.90;;;;;;4945904;28;20436;-77
2024/01/08 10:00:46;;;;;;;11.05;4.22;;;-2.50;99.90;;;;;;4964222;28;20388;-77
2024/01/08 10:03:13;;;;;;;4.57;2.85;;;-2.50;99.90;;;;;;4930331;28;20043;-78
2024/01/08 10:05:38;;;;;;;4.28;2.90;;;-2.60;99.90;;;;;;4942689;28;20350;-76
2024/01/08 10:08:04;;;;;;;6.03;2.42;;;-2.60;99.90;;;;;;4945777;28;20035;-77
2024/01/08 10:10:31;;;;;;;4.55;2.83;;;-2.60;99.90;;;;;;4961892;28;20027;-77
2024/01/08 10:12:57;;;;;;;4.55;2.85;;;-2.70;99.90;;;;;;4960038;28;20152;-78
2024/01/08 10:15:23;;;;;;;4.35;2.72;;;-2.60;99.90;;;;;;4946982;28;20039;-77
2024/01/08 10:17:52;;;;;;;4.95;2.83;;;-2.60;99.90;;;;;;4947302;28;20060;-77
2024/01/08 10:20:17;;;;;;;5.38;2.97;;;-2.50;99.90;;;;;;4930341;28;20039;-76
2024/01/08 10:22:44;;;;;;;4.93;2.78;;;-2.60;99.90;;;;;;4929322;28;20105;-77
2024/01/08 10:25:11;;;;;;;5.50;3.03;;;-2.60;99.90;;;;;;4911284;28;20039;-77
2024/01/08 10:27:38;;;;;;;6.53;3.95;;;-2.50;99.90;;;;;;4930762;28;20038;-78
2024/01/08 10:30:04;;;;;;;4.15;3.47;;;-2.60;99.90;;;;;;4944924;28;20037;-77
2024/01/08 10:32:29;;;;;;;4.53;3.05;;;-2.60;99.90;;;;;;4941616;28;20035;-77
2024/01/08 10:34:56;;;;;;;4.53;3.05;;;-2.70;99.90;;;;;;4948647;28;20039;-77
2024/01/08 10:37:22;;;;;;;7.03;3.22;;;-2.70;99.90;;;;;;4932189;28;20523;-78
2024/01/08 10:39:48;;;;;;;4.38;2.55;;;-2.60;99.90;;;;;;4962034;28;20030;-78
2024/01/08 10:42:14;;;;;;;11.25;2.88;;;-2.50;99.90;;;;;;4944450;28;20149;-78
2024/01/08 10:44:39;;;;;;;5.63;2.97;;;-2.60;99.90;;;;;;4932708;28;20027;-78
2024/01/08 10:47:06;;;;;;;6.90;3.22;;;-2.50;99.90;;;;;;4929811;28;20031;-79
2024/01/08 10:49:33;;;;;;;4.07;2.63;;;-2.40;99.90;;;;;;4946300;28;20015;-78
2024/01/08 10:52:00;;;;;;;5.80;3.30;;;-2.40;99.90;;;;;;4943489;28;20568;-78
2024/01/08 10:54:39;;;;;;;5.55;3.00;;;-2.50;99.90;;;;;;4944182;28;20810;-78
2024/01/08 10:57:06;;;;;;;6.45;3.40;;;-2.40;99.90;;;;;;4928432;28;20493;-78
2024/01/08 10:59:32;;;;;;;6.03;3.47;;;-2.40;99.90;;;;;;4942963;28;20115;-78
2024/01/08 11:01:57;;;;;;;4.63;3.05;;;-2.30;99.90;;;;;;4961298;28;20123;-77
2024/01/08 11:04:24;;;;;;;5.30;3.33;;;-2.30;99.90;;;;;;4960320;28;20038;-78
2024/01/08 11:06:49;;;;;;;4.95;2.67;;;-2.20;99.90;;;;;;4960824;28;20068;-77
2024/01/08 11:09:25;;;;;;;8.95;4.10;;;-2.10;99.90;;;;;;4956824;28;20486;-77
2024/01/08 11:11:51;;;;;;;;;;;-2.20;99.90;;;;;;4938797;28;20042;-77
2024/01/08 11:14:17;;;;;;;4.35;3.30;;;-2.10;99.90;;;;;;4954478;28;20304;-77
2024/01/08 11:16:44;;;;;;;9.77;4.05;;;-2.20;99.90;;;;;;4941477;28;20513;-78
2024/01/08 11:19:20;;;;;;;7.78;3.28;;;-2.30;99.90;;;;;;4929303;28;20534;-77
2024/01/08 11:21:48;;;;;;;6.95;3.85;;;-2.20;99.90;;;;;;4958701;28;20479;-77
2024/01/08 11:24:14;;;;;;;4.57;2.80;;;-2.30;99.90;;;;;;4941839;28;20500;-77
2024/01/08 11:26:47;;;;;;;8.10;3.67;;;-2.30;99.90;;;;;;4914569;28;20113;-78
2024/01/08 11:29:13;;;;;;;5.63;3.65;;;-2.30;99.90;;;;;;4922510;28;20034;-78
2024/01/08 11:31:51;;;;;;;5.65;3.22;;;-2.50;99.90;;;;;;4946396;28;20053;-78
2024/01/08 11:34:38;;;;;;;4.82;2.95;;;-2.20;99.90;;;;;;4960071;28;20093;-77
2024/01/08 11:37:05;;;;;;;6.65;3.22;;;-2.10;99.90;;;;;;4962292;28;20050;-78
2024/01/08 11:39:31;;;;;;;6.68;3.15;;;-2.10;99.90;;;;;;4605957;28;9999776;-77
2024/01/08 11:41:57;;;;;;;6.20;3.20;;;-2.30;99.90;;;;;;4930830;28;20512;-78
2024/01/08 11:44:29;;;;;;;3.30;2.10;;;-2.20;99.90;;;;;;4945257;28;20049;-77
2024/01/08 11:46:55;;;;;;;7.55;2.90;;;-2.30;99.90;;;;;;4959599;28;20143;-76
2024/01/08 11:49:20;;;;;;;7.65;3.15;;;-2.30;99.90;;;;;;4943946;28;20792;-79
2024/01/08 11:51:46;;;;;;;6.57;3.35;;;-2.40;99.90;;;;;;4943065;28;20645;-77
2024/01/08 11:54:14;;;;;;;6.07;3.33;;;-2.30;99.90;;;;;;4917050;28;20067;-77
2024/01/08 11:56:40;;;;;;;4.78;3.33;;;-2.30;99.90;;;;;;4963350;28;20504;-77
2024/01/08 11:59:06;;;;;;;3.90;3.03;;;-2.40;99.90;;;;;;4962197;28;20042;-77
2024/01/08 12:01:31;;;;;;;6.40;3.15;;;-2.40;99.90;;;;;;4947519;28;20031;-77
2024/01/08 12:04:00;;;;;;;6.72;3.50;;;-2.40;99.90;;;;;;4932716;28;20092;-77
2024/01/08 12:06:28;;;;;;;5.85;3.95;;;-2.50;99.90;;;;;;4933026;28;20039;-77
2024/01/08 12:08:54;;;;;;;4.03;3.00;;;-2.60;99.90;;;;;;4931250;28;20541;-78
2024/01/08 12:11:20;;;;;;;4.80;2.70;;;-2.60;99.90;;;;;;4937173;28;20038;-78
2024/01/08 12:13:46;;;;;;;5.60;3.30;;;-2.60;99.90;;;;;;4930902;28;20126;-77
2024/01/08 12:16:13;;;;;;;5.25;2.45;;;-2.50;99.90;;;;;;4963231;28;20035;-77
2024/01/08 12:18:43;;;;;;;5.75;3.90;;;-2.40;99.90;;;;;;4963772;28;20042;-77
2024/01/08 12:21:09;;;;;;;6.15;3.15;;;-2.40;99.90;;;;;;4949638;28;20066;-77
2024/01/08 12:23:36;;;;;;;5.32;3.28;;;-2.50;99.90;;;;;;4947508;28;20034;-76
2024/01/08 12:26:03;;;;;;;5.45;3.65;;;-2.50;99.90;;;;;;4945986;28;20045;-77
2024/01/08 12:28:35;;;;;;;5.05;3.10;;;-2.50;99.90;;;;;;4945810;28;20127;-78
2024/01/08 12:31:01;;;;;;;6.10;3.47;;;-2.60;99.90;;;;;;4963076;28;20066;-77
2024/01/08 12:33:26;;;;;;;4.63;2.80;;;-2.60;99.90;;;;;;4932699;28;20070;-78
2024/01/08 12:35:55;;;;;;;4.82;3.65;;;-2.60;99.90;;;;;;4947340;28;20040;-77